Time;durP1;ratioP1;P1;durP2;ratioP2;P2;SDS_P1;SDS_P2;PMS_P1;PMS_P2;Temp;Humidity;BMP_temperature;BMP_pressure;BME280_temperature;BME280_humidity;BME280_pressure;Samples;Min_cycle;Max_cycle;Signal;HPM_P1;HPM_P2
2023/01/02 00:00:22;;;;;;;41.70;25.55;;;9.20;99.90;;;;;;4013899;29;20102;-88
2023/01/02 00:02:43;;;;;;;44.72;25.98;;;9.20;99.90;;;;;;4013874;29;20090;-91
2023/01/02 00:05:03;;;;;;;44.60;27.58;;;9.20;99.90;;;;;;4014862;29;20048;-91
2023/01/02 00:07:23;;;;;;;54.03;28.00;;;9.10;99.90;;;;;;4014689;29;20098;-90
2023/01/02 00:09:43;;;;;;;54.22;30.02;;;9.10;99.90;;;;;;4014863;29;20049;-91
2023/01/02 00:12:03;;;;;;;62.55;34.22;;;9.10;99.90;;;;;;4014261;29;20044;-90
2023/01/02 00:14:23;;;;;;;44.88;27.95;;;9.10;99.90;;;;;;4013625;29;20235;-91
2023/01/02 00:16:43;;;;;;;56.58;30.85;;;9.10;99.90;;;;;;4026208;29;20090;-91
2023/01/02 00:19:03;;;;;;;50.45;28.60;;;9.10;99.90;;;;;;4014761;29;20069;-90
2023/01/02 00:21:24;;;;;;;59.97;32.63;;;9.10;99.90;;;;;;4014874;29;20060;-91
2023/01/02 00:23:44;;;;;;;51.50;32.17;;;9.10;99.90;;;;;;4013606;29;20049;-91
2023/01/02 00:26:04;;;;;;;48.83;31.23;;;9.20;99.90;;;;;;4012500;29;20426;-90
2023/01/02 00:28:24;;;;;;;70.13;30.58;;;9.20;99.90;;;;;;4014437;29;20045;-91
2023/01/02 00:30:44;;;;;;;54.30;28.00;;;9.20;99.90;;;;;;4014444;29;20048;-90
2023/01/02 00:33:04;;;;;;;59.40;29.25;;;9.20;99.90;;;;;;4014557;29;20046;-88
2023/01/02 00:35:24;;;;;;;51.70;27.73;;;9.20;99.90;;;;;;4014501;29;20097;-91
2023/01/02 00:37:44;;;;;;;60.28;31.80;;;9.10;99.90;;;;;;4013135;29;20110;-90
2023/01/02 00:40:05;;;;;;;80.00;32.95;;;9.20;99.90;;;;;;4014311;29;20133;-90
2023/01/02 00:42:25;;;;;;;59.65;31.80;;;9.10;99.90;;;;;;4013658;29;20085;-91
2023/01/02 00:44:45;;;;;;;49.00;29.30;;;9.10;99.90;;;;;;4012972;29;20044;-91
2023/01/02 00:47:04;;;;;;;51.70;27.83;;;9.10;99.90;;;;;;4014499;29;20094;-91
2023/01/02 00:49:25;;;;;;;58.38;29.92;;;9.10;99.90;;;;;;4014260;29;20056;-91
2023/01/02 00:51:44;;;;;;;53.05;29.95;;;9.20;99.90;;;;;;4002828;29;20376;-90
2023/01/02 00:54:04;;;;;;;44.05;28.25;;;9.20;99.90;;;;;;4014418;29;20073;-91
2023/01/02 00:56:24;;;;;;;54.05;29.50;;;9.20;99.90;;;;;;4013300;29;20297;-91
2023/01/02 00:58:44;;;;;;;54.75;30.67;;;9.20;99.90;;;;;;4014347;29;20162;-91
2023/01/02 01:01:04;;;;;;;54.97;32.35;;;9.20;99.90;;;;;;4014662;29;20065;-91
2023/01/02 01:03:24;;;;;;;46.63;30.08;;;9.20;99.90;;;;;;4015737;29;20064;-91
2023/01/02 01:05:44;;;;;;;57.15;29.92;;;9.20;99.90;;;;;;4013280;29;20053;-91
2023/01/02 01:08:04;;;;;;;35.10;22.85;;;9.20;99.90;;;;;;4014227;29;20116;-91
2023/01/02 01:10:25;;;;;;;38.15;25.35;;;9.20;99.90;;;;;;4014144;29;20053;-90
2023/01/02 01:12:44;;;;;;;43.88;27.13;;;9.20;99.90;;;;;;4017816;29;20044;-90
2023/01/02 01:15:05;;;;;;;50.67;28.17;;;9.10;99.90;;;;;;4013350;29;20053;-91
2023/01/02 01:17:25;;;;;;;46.65;27.15;;;9.20;99.90;;;;;;4005521;29;20092;-90
2023/01/02 01:19:44;;;;;;;40.90;26.98;;;9.20;99.90;;;;;;4001403;29;20061;-90
2023/01/02 01:22:05;;;;;;;56.58;29.25;;;9.20;99.90;;;;;;4014056;29;20083;-89
2023/01/02 01:24:25;;;;;;;53.95;28.70;;;9.10;99.90;;;;;;4014518;29;20053;-91
2023/01/02 01:26:45;;;;;;;60.60;28.02;;;9.10;99.90;;;;;;4016229;29;20053;-91
2023/01/02 01:29:05;;;;;;;63.60;31.27;;;9.10;99.90;;;;;;4016541;29;20244;-91
2023/01/02 01:31:24;;;;;;;42.40;28.55;;;9.10;99.90;;;;;;4015739;29;20053;-88
2023/01/02 01:33:45;;;;;;;43.28;27.10;;;9.10;99.90;;;;;;4007915;29;20052;-90
2023/01/02 01:36:07;;;;;;;52.10;26.67;;;9.20;99.90;;;;;;4006620;29;20100;-91
2023/01/02 01:38:27;;;;;;;60.75;29.13;;;9.20;99.90;;;;;;4003673;29;20368;-90
2023/01/02 01:40:46;;;;;;;39.53;25.02;;;9.10;99.90;;;;;;4015668;29;20367;-91
2023/01/02 01:43:14;;;;;;;39.70;22.70;;;9.00;99.90;;;;;;4015152;29;20041;-91
2023/01/02 01:45:33;;;;;;;34.53;22.33;;;9.00;99.90;;;;;;4015921;29;20065;-90
2023/01/02 01:47:57;;;;;;;88.75;27.13;;;9.10;99.90;;;;;;4016030;29;20069;-90
2023/01/02 01:50:31;;;;;;;55.22;27.40;;;9.10;99.90;;;;;;4015799;29;20053;-91
2023/01/02 01:53:01;;;;;;;70.68;32.00;;;8.90;99.90;;;;;;4015098;29;20105;-90
2023/01/02 01:55:22;;;;;;;89.47;33.92;;;8.90;99.90;;;;;;4028051;29;20121;-91
2023/01/02 01:58:10;;;;;;;85.20;32.60;;;9.00;99.90;;;;;;4016255;29;20233;-90
2023/01/02 02:00:30;;;;;;;53.17;26.90;;;9.00;99.90;;;;;;4028139;29;20093;-90
2023/01/02 02:02:56;;;;;;;58.30;30.83;;;9.10;99.90;;;;;;4015486;29;20250;-91
2023/01/02 02:05:20;;;;;;;77.43;31.90;;;9.10;99.90;;;;;;4015538;29;20123;-90
2023/01/02 02:07:47;;;;;;;51.95;30.73;;;9.10;99.90;;;;;;4015774;29;20049;-90
2023/01/02 02:10:10;;;;;;;51.00;28.85;;;9.10;99.90;;;;;;4016127;29;20068;-91
2023/01/02 02:12:31;;;;;;;49.17;26.58;;;9.20;99.90;;;;;;4015254;29;20052;-90
2023/01/02 02:14:51;;;;;;;53.40;29.40;;;9.20;99.90;;;;;;4015751;29;20052;-90
2023/01/02 02:17:30;;;;;;;47.38;27.10;;;9.20;99.90;;;;;;4014728;29;20162;-90
2023/01/02 02:20:13;;;;;;;48.95;26.85;;;9.20;99.90;;;;;;4016041;29;20118;-91
2023/01/02 02:23:12;;;;;;;;;;;9.20;99.90;;;;;;4016674;29;20363;-90
2023/01/02 02:25:40;;;;;;;45.90;27.35;;;9.20;99.90;;;;;;3984407;29;20069;-91
2023/01/02 02:28:18;;;;;;;30.50;20.73;;;9.20;99.90;;;;;;3984394;29;20046;-90
2023/01/02 02:30:46;;;;;;;23.13;16.92;;;9.10;99.90;;;;;;3978853;29;20090;-91
2023/01/02 02:33:19;;;;;;;27.70;19.70;;;9.20;99.90;;;;;;3983691;29;20140;-91
2023/01/02 02:36:03;;;;;;;35.97;20.92;;;9.10;99.90;;;;;;3983373;29;20143;-90
2023/01/02 02:38:49;;;;;;;26.20;20.85;;;9.10;99.90;;;;;;3984186;29;20099;-90
2023/01/02 02:41:32;;;;;;;27.85;19.13;;;9.10;99.90;;;;;;3971473;29;20058;-90
2023/01/02 02:43:58;;;;;;;21.58;19.15;;;9.10;99.90;;;;;;3982776;29;20072;-91
2023/01/02 02:46:30;;;;;;;29.52;21.23;;;9.10;99.90;;;;;;3983809;29;20054;-91
2023/01/02 02:49:17;;;;;;;29.38;20.65;;;9.00;99.90;;;;;;3984024;29;20049;-90
2023/01/02 02:51:41;;;;;;;34.33;20.25;;;9.00;99.90;;;;;;3983508;29;20368;-90
2023/01/02 02:54:11;;;;;;;27.35;20.33;;;9.00;99.90;;;;;;3983965;29;20376;-90
2023/01/02 02:56:31;;;;;;;26.48;20.20;;;9.00;99.90;;;;;;4003934;29;20052;-91
2023/01/02 02:58:52;;;;;;;29.73;22.08;;;9.10;99.90;;;;;;4014577;29;20041;-90
2023/01/02 03:01:14;;;;;;;26.52;20.45;;;9.10;99.90;;;;;;4015407;29;20093;-90
2023/01/02 03:03:34;;;;;;;27.52;21.15;;;9.10;99.90;;;;;;4019584;29;20053;-90
2023/01/02 03:06:15;;;;;;;35.97;25.30;;;9.10;99.90;;;;;;4016703;29;20065;-91
2023/01/02 03:08:45;;;;;;;32.92;22.27;;;9.10;99.90;;;;;;4030350;29;20085;-90
2023/01/02 03:11:06;;;;;;;33.17;21.55;;;9.10;99.90;;;;;;4025940;29;20097;-91
2023/01/02 03:13:25;;;;;;;26.63;20.70;;;9.10;99.90;;;;;;4014514;29;20088;-91
2023/01/02 03:16:11;;;;;;;30.65;20.08;;;9.10;99.90;;;;;;4015004;29;20048;-91
2023/01/02 03:18:53;;;;;;;32.50;21.52;;;9.10;99.90;;;;;;4015278;29;20388;-90
2023/01/02 03:21:37;;;;;;;28.23;20.67;;;9.10;99.90;;;;;;4014514;29;20074;-90
2023/01/02 03:24:01;;;;;;;35.90;24.13;;;9.00;99.90;;;;;;4011756;29;20072;-91
2023/01/02 03:26:28;;;;;;;43.97;24.42;;;9.00;99.90;;;;;;4013768;29;20097;-91
2023/01/02 03:28:55;;;;;;;33.30;22.75;;;9.10;99.90;;;;;;4013705;29;20399;-91
2023/01/02 03:31:18;;;;;;;47.50;26.05;;;9.20;99.90;;;;;;4014531;29;20111;-90
2023/01/02 03:33:43;;;;;;;60.70;29.23;;;9.10;99.90;;;;;;4014738;29;20083;-90
2023/01/02 03:36:07;;;;;;;41.72;25.63;;;9.10;99.90;;;;;;4008671;29;20129;-89
2023/01/02 03:38:46;;;;;;;42.25;27.25;;;9.10;99.90;;;;;;4020758;29;20051;-90
2023/01/02 03:41:29;;;;;;;47.20;28.10;;;9.10;99.90;;;;;;4013350;29;20117;-91
2023/01/02 03:43:52;;;;;;;44.20;26.92;;;9.10;99.90;;;;;;4014782;29;20240;-91
2023/01/02 03:46:22;;;;;;;61.50;30.67;;;9.10;99.90;;;;;;4014102;29;20053;-91
2023/01/02 03:48:56;;;;;;;62.13;31.40;;;9.10;99.90;;;;;;4026232;29;20053;-90
2023/01/02 03:51:16;;;;;;;51.92;29.67;;;9.10;99.90;;;;;;4026591;29;20072;-90
2023/01/02 03:53:38;;;;;;;53.22;29.90;;;9.10;99.90;;;;;;4014847;29;20049;-91
2023/01/02 03:56:44;;;;;;;57.92;31.73;;;9.20;99.90;;;;;;4013208;29;20094;-91
2023/01/02 03:59:32;;;;;;;69.10;31.58;;;9.10;99.90;;;;;;4000855;29;20053;-91
2023/01/02 04:02:12;;;;;;;51.75;27.73;;;9.10;99.90;;;;;;4014468;29;20065;-90
2023/01/02 04:04:35;;;;;;;55.55;29.35;;;9.20;99.90;;;;;;4007792;29;20091;-90
2023/01/02 04:07:00;;;;;;;103.15;35.90;;;9.20;99.90;;;;;;4014149;29;20060;-91
2023/01/02 04:09:24;;;;;;;63.45;32.00;;;9.20;99.90;;;;;;4014013;29;20053;-91
2023/01/02 04:11:50;;;;;;;53.25;29.52;;;9.10;99.90;;;;;;4003769;29;20171;-90
2023/01/02 04:14:20;;;;;;;47.80;27.73;;;9.20;99.90;;;;;;4014658;29;20428;-90
2023/01/02 04:16:43;;;;;;;46.65;27.52;;;9.20;99.90;;;;;;4014417;29;20053;-90
2023/01/02 04:19:32;;;;;;;;;;;9.20;99.90;;;;;;4015063;29;20049;-89
2023/01/02 04:21:56;;;;;;;43.90;25.30;;;9.10;99.90;;;;;;3976352;29;19928;-89
2023/01/02 04:24:25;;;;;;;71.03;27.42;;;9.10;99.90;;;;;;3960599;30;20058;-91
2023/01/02 04:27:18;;;;;;;122.43;31.63;;;9.10;99.90;;;;;;3963369;30;20067;-91
2023/01/02 04:29:38;;;;;;;49.67;27.05;;;9.00;99.90;;;;;;3920171;30;20171;-89
2023/01/02 04:32:20;;;;;;;81.32;29.15;;;9.00;99.90;;;;;;3924079;30;20208;-90
2023/01/02 04:34:42;;;;;;;65.65;28.70;;;9.10;99.90;;;;;;3935335;30;20071;-90
2023/01/02 04:37:02;;;;;;;183.15;29.85;;;9.10;99.90;;;;;;3937459;30;20295;-90
2023/01/02 04:39:23;;;;;;;114.50;29.77;;;9.00;99.90;;;;;;3925365;30;20401;-91
2023/01/02 04:41:43;;;;;;;51.25;26.88;;;9.00;99.90;;;;;;3937864;30;20059;-90
2023/01/02 04:44:03;;;;;;;179.57;28.98;;;9.10;99.90;;;;;;3935031;30;20397;-90
2023/01/02 04:46:25;;;;;;;178.45;31.08;;;9.10;99.90;;;;;;3935152;30;20063;-90
2023/01/02 04:48:45;;;;;;;259.45;32.75;;;9.00;99.90;;;;;;3925972;30;20108;-91
2023/01/02 04:51:05;;;;;;;198.25;34.55;;;9.00;99.90;;;;;;3918649;30;20063;-90
2023/01/02 04:53:28;;;;;;;65.03;26.17;;;9.00;99.90;;;;;;3931055;30;20232;-91
2023/01/02 04:55:53;;;;;;;45.40;26.08;;;9.00;99.90;;;;;;3935242;30;20058;-91
2023/01/02 04:58:13;;;;;;;49.03;26.48;;;9.00;99.90;;;;;;3958982;29;20466;-88
2023/01/02 05:00:34;;;;;;;46.38;27.42;;;9.00;99.90;;;;;;3985070;29;20050;-90
2023/01/02 05:02:53;;;;;;;45.78;26.02;;;9.00;99.90;;;;;;3972675;29;20158;-91
2023/01/02 05:05:13;;;;;;;44.28;25.05;;;9.00;99.90;;;;;;3976849;29;20136;-91
2023/01/02 05:07:34;;;;;;;57.30;27.40;;;9.10;99.90;;;;;;4015845;29;20048;-91
2023/01/02 05:09:54;;;;;;;41.20;25.45;;;9.00;99.90;;;;;;4016912;29;20049;-91
2023/01/02 05:12:14;;;;;;;44.53;24.67;;;9.00;99.90;;;;;;4028832;29;20069;-90
2023/01/02 05:14:35;;;;;;;42.33;24.17;;;9.00;99.90;;;;;;4015362;29;20084;-91
2023/01/02 05:16:55;;;;;;;38.22;23.33;;;9.00;99.90;;;;;;4016868;29;20053;-91
2023/01/02 05:19:15;;;;;;;34.50;21.27;;;9.00;99.90;;;;;;4016842;29;20113;-90
2023/01/02 05:24:13;;;;;;;36.22;21.60;;;8.90;99.90;;;;;;4015542;29;20261;-91
2023/01/02 05:26:33;;;;;;;32.42;20.58;;;8.90;99.90;;;;;;4003195;29;20110;-91
2023/01/02 05:28:54;;;;;;;32.78;21.52;;;8.90;99.90;;;;;;4016583;29;20057;-89
2023/01/02 05:31:13;;;;;;;40.17;23.05;;;9.00;99.90;;;;;;4004132;29;20094;-91
2023/01/02 05:33:33;;;;;;;35.92;21.70;;;9.00;99.90;;;;;;4016201;29;20061;-91
2023/01/02 05:35:53;;;;;;;31.88;21.05;;;9.00;99.90;;;;;;4015498;29;20075;-91
2023/01/02 05:38:13;;;;;;;41.55;23.85;;;8.90;99.90;;;;;;4016564;29;20061;-90
2023/01/02 05:40:34;;;;;;;53.72;28.33;;;9.00;99.90;;;;;;4028706;29;20188;-91
2023/01/02 05:42:53;;;;;;;50.63;28.17;;;8.90;99.90;;;;;;4016161;29;20078;-91
2023/01/02 05:45:13;;;;;;;52.08;28.45;;;9.00;99.90;;;;;;4015398;29;20429;-90
2023/01/02 05:47:33;;;;;;;35.83;24.13;;;9.00;99.90;;;;;;4016588;29;20131;-91
2023/01/02 05:49:53;;;;;;;62.63;30.42;;;9.10;99.90;;;;;;4016337;29;20273;-91
2023/01/02 05:52:13;;;;;;;56.22;28.13;;;9.00;99.90;;;;;;4004338;29;20052;-89
2023/01/02 05:54:33;;;;;;;66.47;30.13;;;9.00;99.90;;;;;;4016157;29;20249;-89
2023/01/02 05:56:54;;;;;;;54.13;27.70;;;9.00;99.90;;;;;;4027624;29;20052;-91
2023/01/02 05:59:15;;;;;;;43.90;26.83;;;9.00;99.90;;;;;;4028567;29;20053;-90
2023/01/02 06:01:34;;;;;;;47.25;27.05;;;9.10;99.90;;;;;;4016194;29;20094;-90
2023/01/02 06:03:57;;;;;;;50.20;29.50;;;9.10;99.90;;;;;;4016335;29;20053;-91
2023/01/02 06:06:18;;;;;;;53.17;28.80;;;9.10;99.90;;;;;;4015211;29;20117;-91
2023/01/02 06:08:38;;;;;;;47.65;29.73;;;9.00;99.90;;;;;;4016142;29;20397;-91
2023/01/02 06:10:59;;;;;;;20.88;16.20;;;9.00;99.90;;;;;;4027727;29;20053;-90
2023/01/02 06:13:18;;;;;;;18.25;12.13;;;9.00;99.90;;;;;;4016170;29;20065;-91
2023/01/02 06:15:38;;;;;;;17.50;14.40;;;8.90;99.90;;;;;;4015583;29;20108;-90
2023/01/02 06:17:58;;;;;;;18.65;15.98;;;8.90;99.90;;;;;;4008702;29;20359;-90
2023/01/02 06:20:18;;;;;;;21.23;15.75;;;8.90;99.90;;;;;;4015210;29;20049;-90
2023/01/02 06:22:38;;;;;;;18.85;14.68;;;9.00;99.90;;;;;;4015751;29;20066;-90
2023/01/02 06:24:58;;;;;;;50.63;35.63;;;9.00;99.90;;;;;;4016148;29;20048;-89
2023/01/02 06:27:18;;;;;;;72.68;47.97;;;9.00;99.90;;;;;;4014568;29;20070;-90
2023/01/02 06:29:38;;;;;;;57.53;39.33;;;9.10;99.90;;;;;;4014914;29;20456;-90
2023/01/02 06:31:58;;;;;;;48.42;33.05;;;9.10;99.90;;;;;;4015925;29;20048;-89
2023/01/02 06:34:18;;;;;;;37.72;29.00;;;9.00;99.90;;;;;;4012980;29;20081;-90
2023/01/02 06:36:38;;;;;;;35.03;25.02;;;9.00;99.90;;;;;;4027230;29;20428;-89
2023/01/02 06:38:58;;;;;;;24.63;19.00;;;9.00;99.90;;;;;;4027123;29;20089;-90
2023/01/02 06:41:18;;;;;;;44.33;30.95;;;9.00;99.90;;;;;;4014697;29;20121;-91
2023/01/02 06:43:43;;;;;;;40.45;26.83;;;9.00;99.90;;;;;;4018624;29;20351;-91
2023/01/02 06:46:04;;;;;;;33.00;22.33;;;8.90;99.90;;;;;;4027151;29;20060;-90
2023/01/02 06:48:24;;;;;;;31.50;21.60;;;8.90;99.90;;;;;;4014373;29;20049;-90
2023/01/02 06:50:44;;;;;;;29.40;21.75;;;9.00;99.90;;;;;;4014840;29;20094;-89
2023/01/02 06:53:05;;;;;;;24.13;20.48;;;9.00;99.90;;;;;;4014249;29;20097;-90
2023/01/02 06:55:25;;;;;;;26.98;20.25;;;9.00;99.90;;;;;;4015536;29;20086;-90
2023/01/02 06:57:45;;;;;;;33.40;20.65;;;9.00;99.90;;;;;;4015688;29;20072;-89
2023/01/02 07:00:05;;;;;;;32.03;22.02;;;9.00;99.90;;;;;;4006308;29;20084;-90
2023/01/02 07:02:26;;;;;;;27.40;22.35;;;9.00;99.90;;;;;;4015505;29;20107;-92
2023/01/02 07:04:46;;;;;;;28.27;22.23;;;9.00;99.90;;;;;;4015066;29;20088;-92
2023/01/02 07:07:07;;;;;;;46.70;32.33;;;9.00;99.90;;;;;;4014991;29;20117;-92
2023/01/02 07:09:27;;;;;;;31.02;21.15;;;9.00;99.90;;;;;;4014902;29;20113;-92
2023/01/02 07:11:47;;;;;;;28.73;22.42;;;9.00;99.90;;;;;;4015468;29;20056;-92
2023/01/02 07:14:07;;;;;;;30.52;22.88;;;9.00;99.90;;;;;;4015475;29;20105;-92
2023/01/02 07:16:27;;;;;;;23.98;19.55;;;9.00;99.90;;;;;;4015409;29;20168;-92
2023/01/02 07:18:47;;;;;;;29.90;19.70;;;9.00;99.90;;;;;;4015442;29;20049;-92
2023/01/02 07:21:08;;;;;;;28.55;22.50;;;8.90;99.90;;;;;;4014471;29;20127;-92
2023/01/02 07:23:28;;;;;;;32.70;25.02;;;8.90;99.90;;;;;;4014789;29;20155;-92
2023/01/02 07:25:56;;;;;;;62.67;42.20;;;9.00;99.90;;;;;;4014760;29;20147;-92
2023/01/02 07:28:16;;;;;;;38.90;24.85;;;9.00;99.90;;;;;;4014924;29;20045;-92
2023/01/02 07:30:36;;;;;;;36.88;23.80;;;9.00;99.90;;;;;;4027314;29;20418;-92
2023/01/02 07:32:56;;;;;;;36.78;24.98;;;9.00;99.90;;;;;;4015039;29;20049;-92
2023/01/02 07:35:15;;;;;;;32.40;25.25;;;9.00;99.90;;;;;;4015792;29;20127;-92
2023/01/02 07:37:36;;;;;;;36.13;24.00;;;9.00;99.90;;;;;;4026661;29;20113;-91
2023/01/02 07:39:56;;;;;;;31.42;23.27;;;9.00;99.90;;;;;;4003576;29;20087;-92
2023/01/02 07:42:16;;;;;;;36.13;24.95;;;9.00;99.90;;;;;;4015771;29;20069;-91
2023/01/02 07:44:36;;;;;;;37.15;29.40;;;9.00;99.90;;;;;;4026973;29;20056;-92
2023/01/02 07:46:56;;;;;;;41.17;28.33;;;9.10;99.90;;;;;;4026913;29;20507;-90
2023/01/02 07:49:16;;;;;;;32.50;25.77;;;9.00;99.90;;;;;;4012805;29;20367;-91
2023/01/02 07:51:36;;;;;;;32.90;26.60;;;9.00;99.90;;;;;;4026885;29;20117;-92
2023/01/02 07:53:55;;;;;;;45.20;30.08;;;9.00;99.90;;;;;;4013094;29;20233;-91
2023/01/02 07:56:15;;;;;;;42.53;26.73;;;9.10;99.90;;;;;;4015029;29;20425;-92
2023/01/02 07:58:36;;;;;;;37.80;23.00;;;9.10;99.90;;;;;;4014891;29;20068;-92
2023/01/02 08:00:57;;;;;;;32.92;22.40;;;9.20;99.90;;;;;;4014081;29;20061;-92
2023/01/02 08:03:25;;;;;;;30.42;21.27;;;9.20;99.90;;;;;;4014450;29;20274;-91
2023/01/02 08:05:45;;;;;;;33.35;22.05;;;9.10;99.90;;;;;;4014812;29;20056;-93
2023/01/02 08:08:06;;;;;;;28.48;20.10;;;9.10;99.90;;;;;;4026377;29;20277;-92
2023/01/02 08:10:26;;;;;;;31.15;21.45;;;9.20;99.90;;;;;;4025302;29;20056;-92
2023/01/02 08:12:46;;;;;;;22.88;20.48;;;9.20;99.90;;;;;;4018660;29;20057;-92
2023/01/02 08:15:06;;;;;;;33.20;22.33;;;9.10;99.90;;;;;;4014754;29;20094;-92
2023/01/02 08:17:25;;;;;;;30.85;21.95;;;9.10;99.90;;;;;;4015915;29;20053;-92
2023/01/02 08:19:45;;;;;;;32.05;22.73;;;9.20;99.90;;;;;;4013632;29;20053;-91
2023/01/02 08:22:05;;;;;;;24.98;18.70;;;9.20;99.90;;;;;;4012690;29;20060;-91
2023/01/02 08:24:29;;;;;;;32.42;22.90;;;9.20;99.90;;;;;;4026745;29;20044;-92
2023/01/02 08:26:49;;;;;;;35.72;22.52;;;9.20;99.90;;;;;;4014640;29;20371;-92
2023/01/02 08:29:08;;;;;;;37.45;24.50;;;9.30;99.90;;;;;;4013720;29;20076;-91
2023/01/02 08:31:28;;;;;;;36.88;25.42;;;9.30;99.90;;;;;;4013693;29;20094;-92
2023/01/02 08:33:48;;;;;;;38.90;26.15;;;9.40;99.90;;;;;;4016781;29;20457;-92
2023/01/02 08:36:09;;;;;;;45.72;28.00;;;9.40;99.90;;;;;;4017315;29;20052;-94
2023/01/02 08:38:29;;;;;;;43.75;28.33;;;9.40;99.90;;;;;;4016204;29;20057;-94
2023/01/02 08:40:50;;;;;;;40.00;25.05;;;9.40;99.90;;;;;;4015651;29;20053;-95
2023/01/02 08:43:10;;;;;;;37.30;25.05;;;9.40;99.90;;;;;;4007652;29;20063;-94
2023/01/02 08:45:30;;;;;;;39.45;26.33;;;9.40;99.90;;;;;;4017865;29;20057;-94
2023/01/02 08:47:50;;;;;;;36.70;23.77;;;9.40;99.90;;;;;;4018323;29;20132;-94
2023/01/02 08:50:10;;;;;;;35.83;22.58;;;9.40;99.90;;;;;;4016279;29;20045;-94
2023/01/02 08:52:31;;;;;;;37.67;24.10;;;9.40;99.90;;;;;;4017905;29;20413;-95
2023/01/02 08:54:50;;;;;;;35.25;24.27;;;9.40;99.90;;;;;;4028629;29;20311;-93
2023/01/02 08:57:10;;;;;;;22.15;19.75;;;9.40;99.90;;;;;;4017031;29;20094;-92
2023/01/02 08:59:30;;;;;;;26.63;19.40;;;9.40;99.90;;;;;;4017112;29;20109;-93
2023/01/02 09:01:51;;;;;;;27.75;20.05;;;9.40;99.90;;;;;;4016225;29;20067;-94
2023/01/02 09:04:11;;;;;;;22.45;16.92;;;9.40;99.90;;;;;;4015915;29;20083;-94
2023/01/02 09:06:34;;;;;;;18.65;16.70;;;9.40;99.90;;;;;;4008678;29;20139;-94
2023/01/02 09:08:56;;;;;;;25.15;18.10;;;9.50;99.90;;;;;;4015977;29;20068;-94
2023/01/02 09:11:20;;;;;;;23.10;19.33;;;9.60;99.90;;;;;;4016856;29;20052;-93
2023/01/02 09:13:40;;;;;;;27.98;22.48;;;9.60;99.90;;;;;;4016646;29;20082;-93
2023/01/02 09:16:01;;;;;;;34.58;26.90;;;9.60;99.90;;;;;;4005473;29;20090;-93
2023/01/02 09:18:21;;;;;;;27.73;22.02;;;9.60;99.90;;;;;;4017502;29;20094;-94
2023/01/02 09:20:48;;;;;;;38.17;24.00;;;9.70;99.90;;;;;;4015848;29;20086;-94
2023/01/02 09:23:07;;;;;;;41.47;28.75;;;9.70;99.90;;;;;;4016724;29;20425;-94
2023/01/02 09:25:27;;;;;;;30.63;24.35;;;9.70;99.90;;;;;;4028894;29;20097;-93
2023/01/02 09:27:47;;;;;;;27.80;20.65;;;9.70;99.90;;;;;;4007363;29;20068;-94
2023/01/02 09:30:07;;;;;;;25.52;19.80;;;9.80;99.90;;;;;;4016871;29;20057;-93
2023/01/02 09:32:27;;;;;;;32.25;22.35;;;9.70;99.90;;;;;;4015351;29;20079;-93
2023/01/02 09:34:49;;;;;;;20.05;18.00;;;9.70;99.90;;;;;;4014733;29;20061;-93
2023/01/02 09:37:08;;;;;;;25.13;22.27;;;9.70;99.90;;;;;;4016731;29;20049;-92
2023/01/02 09:39:30;;;;;;;52.78;39.08;;;9.70;99.90;;;;;;4015793;29;20057;-94
2023/01/02 09:41:56;;;;;;;51.33;38.40;;;9.80;99.90;;;;;;4027348;29;20238;-94
2023/01/02 09:44:30;;;;;;;40.88;32.17;;;9.80;99.90;;;;;;4027181;29;20109;-93
2023/01/02 09:46:59;;;;;;;25.33;19.13;;;9.80;99.90;;;;;;4014956;29;20045;-94
2023/01/02 09:49:22;;;;;;;24.45;20.33;;;9.80;99.90;;;;;;4015903;29;20057;-94
2023/01/02 09:51:43;;;;;;;27.63;19.92;;;9.80;99.90;;;;;;4007682;29;20062;-93
2023/01/02 09:54:10;;;;;;;25.75;21.27;;;9.90;99.90;;;;;;4015387;29;20061;-94
2023/01/02 09:56:36;;;;;;;38.03;22.58;;;9.90;99.90;;;;;;4027289;29;20288;-91
2023/01/02 09:59:04;;;;;;;38.10;26.92;;;10.00;99.90;;;;;;4005647;29;20054;-94
2023/01/02 10:01:40;;;;;;;28.77;24.17;;;10.10;99.90;;;;;;4005480;29;20564;-93
2023/01/02 10:04:16;;;;;;;29.35;22.50;;;10.00;99.90;;;;;;4015899;29;20045;-92
2023/01/02 10:06:48;;;;;;;24.80;20.90;;;10.00;99.90;;;;;;4007909;29;20125;-92
2023/01/02 10:09:24;;;;;;;24.92;21.65;;;10.10;99.90;;;;;;4015910;29;20057;-92
2023/01/02 10:11:58;;;;;;;25.20;19.90;;;10.20;99.90;;;;;;4027942;29;20061;-93
2023/01/02 10:14:21;;;;;;;30.65;24.05;;;10.20;99.90;;;;;;4015627;29;20117;-93
2023/01/02 10:16:50;;;;;;;27.88;25.00;;;10.10;99.90;;;;;;4015734;29;20094;-93
2023/01/02 10:19:41;;;;;;;30.00;22.98;;;10.10;99.90;;;;;;4014425;29;20467;-93
2023/01/02 10:22:03;;;;;;;27.77;23.90;;;10.20;99.90;;;;;;4015654;29;20069;-92
2023/01/02 10:24:59;;;;;;;23.70;20.50;;;10.20;99.90;;;;;;4009914;29;20126;-92
2023/01/02 10:27:30;;;;;;;24.23;21.38;;;10.20;99.90;;;;;;3991460;29;20343;-93
2023/01/02 10:29:57;;;;;;;24.48;21.35;;;10.20;99.90;;;;;;4027418;29;20058;-92
2023/01/02 10:32:19;;;;;;;25.90;19.80;;;10.20;99.90;;;;;;4026778;29;20048;-92
2023/01/02 10:34:50;;;;;;;27.95;20.45;;;10.20;99.90;;;;;;4026850;29;20097;-93
2023/01/02 10:37:13;;;;;;;28.00;22.35;;;10.30;99.90;;;;;;4026613;29;20076;-93
2023/01/02 10:39:32;;;;;;;28.92;21.77;;;10.40;99.90;;;;;;4015559;29;20076;-92
2023/01/02 10:41:58;;;;;;;23.00;20.00;;;10.40;99.90;;;;;;4010144;29;20083;-93
2023/01/02 10:44:26;;;;;;;22.77;18.88;;;10.40;99.90;;;;;;4018241;29;20240;-94
2023/01/02 10:46:46;;;;;;;21.30;17.58;;;10.40;99.90;;;;;;4012606;29;20102;-93
2023/01/02 10:49:08;;;;;;;22.20;17.27;;;10.50;99.90;;;;;;4014686;29;20375;-94
2023/01/02 10:51:29;;;;;;;21.23;17.60;;;10.50;99.90;;;;;;4026382;29;20052;-94
2023/01/02 10:54:04;;;;;;;15.85;14.38;;;10.40;99.90;;;;;;4013699;29;20228;-93
2023/01/02 10:56:24;;;;;;;20.02;15.27;;;10.30;99.90;;;;;;4017650;29;20106;-93
2023/01/02 10:58:46;;;;;;;25.70;19.35;;;10.40;99.90;;;;;;4014647;29;20109;-93
2023/01/02 11:01:12;;;;;;;26.05;16.95;;;10.50;99.90;;;;;;4015039;29;20075;-93
2023/01/02 11:03:33;;;;;;;17.00;15.30;;;10.50;99.90;;;;;;4026199;29;20064;-93
2023/01/02 11:05:56;;;;;;;16.30;14.80;;;10.60;99.90;;;;;;4013391;29;20052;-93
2023/01/02 11:08:36;;;;;;;15.75;14.30;;;10.50;99.90;;;;;;4007680;29;20049;-93
2023/01/02 11:11:00;;;;;;;14.32;12.25;;;10.60;99.90;;;;;;4027037;29;20076;-94
2023/01/02 11:13:21;;;;;;;13.88;12.43;;;10.70;99.90;;;;;;4014908;29;20285;-91
2023/01/02 11:16:01;;;;;;;14.70;13.23;;;10.70;99.90;;;;;;4026515;29;20052;-93
2023/01/02 11:18:25;;;;;;;14.75;12.60;;;10.90;99.90;;;;;;4012446;29;20053;-93
2023/01/02 11:20:55;;;;;;;14.15;12.73;;;10.80;99.90;;;;;;4017724;29;20405;-93
2023/01/02 11:23:15;;;;;;;13.73;12.40;;;10.80;99.90;;;;;;4026240;29;20392;-93
2023/01/02 11:25:39;;;;;;;20.63;14.80;;;10.90;99.90;;;;;;4014873;29;20286;-93
2023/01/02 11:28:00;;;;;;;13.05;11.35;;;10.80;99.90;;;;;;4014799;29;20121;-92
2023/01/02 11:30:48;;;;;;;20.70;15.10;;;10.80;99.90;;;;;;4003454;29;20049;-93
2023/01/02 11:33:23;;;;;;;12.77;10.80;;;10.80;99.90;;;;;;4014418;29;20044;-93
2023/01/02 11:35:50;;;;;;;9.57;9.02;;;10.80;99.90;;;;;;4014079;29;20060;-92
2023/01/02 11:38:16;;;;;;;8.38;7.53;;;10.80;99.90;;;;;;4014778;29;20088;-93
2023/01/02 11:41:00;;;;;;;9.73;7.65;;;10.80;99.90;;;;;;4013886;29;20090;-93
2023/01/02 11:43:49;;;;;;;8.07;7.47;;;10.80;99.90;;;;;;4013961;29;20146;-94
2023/01/02 11:46:35;;;;;;;7.90;7.50;;;10.80;99.90;;;;;;4014414;29;20056;-94
2023/01/02 11:49:12;;;;;;;6.65;6.35;;;10.80;99.90;;;;;;4013126;29;20053;-94
2023/01/02 11:51:35;;;;;;;9.60;7.03;;;10.80;99.90;;;;;;4014541;29;20049;-92
2023/01/02 11:53:59;;;;;;;7.50;6.78;;;10.80;99.90;;;;;;4013570;29;20093;-92
2023/01/02 11:56:27;;;;;;;8.60;7.75;;;10.70;99.90;;;;;;4013472;29;20124;-92
2023/01/02 11:59:11;;;;;;;11.32;8.32;;;10.70;99.90;;;;;;4012844;29;20049;-92
2023/01/02 12:01:50;;;;;;;8.77;8.23;;;10.80;99.90;;;;;;4008212;29;20079;-91
2023/01/02 12:04:42;;;;;;;9.07;8.05;;;10.80;99.90;;;;;;4013776;29;20053;-93
2023/01/02 12:07:11;;;;;;;8.07;7.60;;;10.90;99.90;;;;;;4012169;29;20049;-91
2023/01/02 12:09:34;;;;;;;8.95;8.13;;;10.90;99.90;;;;;;4005122;29;20114;-92
2023/01/02 12:12:55;;;;;;;8.40;7.72;;;10.80;99.90;;;;;;4013438;29;20094;-93
2023/01/02 12:15:50;;;;;;;8.27;7.55;;;10.90;99.90;;;;;;3965632;30;20080;-92
2023/01/02 12:18:43;;;;;;;5.78;5.38;;;10.90;99.90;;;;;;3961961;30;20092;-92
2023/01/02 12:21:22;;;;;;;7.70;6.07;;;10.80;99.90;;;;;;3958344;30;20054;-92
2023/01/02 12:24:02;;;;;;;9.98;9.10;;;10.80;99.90;;;;;;3962178;30;20095;-92
2023/01/02 12:26:44;;;;;;;7.22;6.78;;;10.80;99.90;;;;;;3952857;30;20085;-91